Forest City, California
Current Conditions -  °F | °C
As of 11:52 AM on Thursday 23 Oct 2014 (Local Time) from KBLU Reporting Station
Broken Clouds Broken Clouds  
Wind Chill: 54°   Ceiling: 10000
Heat Index: 54°   Visibility: 10mi
Dew Point: 35°   Wind: 7mph
Humidity: 49%   Direction: 180°S
Pressure: 30.2"   Gusts: NA
Location:  39.5164°N, 120.718°W
Report Text: KBLU 231852Z AUTO 18006KT 10SM BKN100 12/02 A3020 RMK AO2 SLP178 T01220017 $
Loading
Personal Weather Stations






























Interactive Weather Map
Tropical Storm Tracking
New forecast layout! Learn more

10-Day Weather Forecast

Advertisements
Track Severe Weather on mobile